createdAt,value
2022-10-01T00:03:27.024Z,10.4
2022-10-01T00:09:04.014Z,10.6
2022-10-01T00:14:41.561Z,10.6
2022-10-01T00:20:18.519Z,10.6
2022-10-01T00:25:55.065Z,10.6
2022-10-01T00:31:36.389Z,10.6
2022-10-01T00:37:13.971Z,10.5
2022-10-01T00:42:50.939Z,10.4
2022-10-01T00:48:28.845Z,10.4
2022-10-01T00:53:53.943Z,10.3
2022-10-01T00:59:30.767Z,10.3
2022-10-01T01:05:08.253Z,10.2
2022-10-01T01:10:28.315Z,10.2
2022-10-01T01:16:06.528Z,10.1
2022-10-01T01:21:28.827Z,10.1
2022-10-01T01:26:49.205Z,10.1
2022-10-01T01:32:14.757Z,10.1
2022-10-01T01:37:52.095Z,9.9
2022-10-01T01:43:14.008Z,9.8
2022-10-01T01:48:52.136Z,9.8
2022-10-01T01:54:29.273Z,9.7
2022-10-01T01:59:50.951Z,9.6
2022-10-01T02:05:28.724Z,9.6
2022-10-01T02:11:06.453Z,9.6
2022-10-01T02:16:43.739Z,9.7
2022-10-01T02:22:21.159Z,9.8
2022-10-01T02:27:58.300Z,9.8
2022-10-01T02:33:36.611Z,9.8
2022-10-01T02:39:16.435Z,9.8
2022-10-01T02:44:23.396Z,9.8
2022-10-01T02:50:04.901Z,9.9
2022-10-01T02:55:42.244Z,9.9
2022-10-01T03:01:20.721Z,10
2022-10-01T03:06:42.526Z,10.1
2022-10-01T03:12:20.477Z,10.1
2022-10-01T03:17:57.651Z,10.3
2022-10-01T03:23:34.458Z,10.3
2022-10-01T03:29:11.494Z,10.3
2022-10-01T03:34:33.525Z,10.4
2022-10-01T03:39:54.890Z,10.4
2022-10-01T03:45:33.000Z,10.4
2022-10-01T03:50:54.781Z,10.3
2022-10-01T03:56:31.128Z,10.3
2022-10-01T04:02:08.935Z,10.1
2022-10-01T04:07:30.738Z,10.1
2022-10-01T04:13:11.805Z,10
2022-10-01T04:18:49.015Z,9.9
2022-10-01T04:23:56.170Z,9.9
2022-10-01T04:29:35.705Z,9.9
2022-10-01T04:35:15.864Z,9.9
2022-10-01T04:40:40.352Z,10
2022-10-01T04:46:17.575Z,10.1
2022-10-01T04:51:39.652Z,10.2
2022-10-01T04:57:01.983Z,10.4
2022-10-01T05:02:29.621Z,10.6
2022-10-01T05:07:51.499Z,11.3
2022-10-01T05:13:32.196Z,12.1
2022-10-01T05:18:54.931Z,12.9
2022-10-01T05:24:32.260Z,14.3
2022-10-01T05:29:54.430Z,16.9
2022-10-01T05:35:31.924Z,20.1
2022-10-01T05:41:09.674Z,22.3
2022-10-01T05:46:36.599Z,25.2
2022-10-01T05:52:13.528Z,28.1
2022-10-01T05:57:50.927Z,29.3
2022-10-01T06:03:32.238Z,29.5
2022-10-01T06:09:12.593Z,31.9
2022-10-01T06:14:55.048Z,35.6
2022-10-01T06:20:33.117Z,40.1
2022-10-01T06:26:10.619Z,42.3
2022-10-01T06:31:48.839Z,47.1
2022-10-01T06:37:11.419Z,40.1
2022-10-01T06:42:50.304Z,37.7
2022-10-01T06:48:14.840Z,42.1
2022-10-01T06:53:38.213Z,48.4
2022-10-01T06:59:15.532Z,43.1
2022-10-01T07:04:54.409Z,43.3
2022-10-01T07:10:36.523Z,44.4
2022-10-01T07:16:13.918Z,46
2022-10-01T07:21:52.631Z,47.7
2022-10-01T07:27:14.562Z,49
2022-10-01T07:32:36.949Z,48
2022-10-01T07:37:59.412Z,48.2
2022-10-01T07:43:38.138Z,46.9
2022-10-01T07:49:00.547Z,46.7
2022-10-01T07:54:22.968Z,44.9
2022-10-01T08:00:00.913Z,42.7
2022-10-01T08:05:39.158Z,40.8
2022-10-01T08:11:16.679Z,39.8
2022-10-01T08:16:39.935Z,38.8
2022-10-01T08:21:46.855Z,37.4
2022-10-01T08:26:58.777Z,36.3
2022-10-01T08:32:28.277Z,35.6
2022-10-01T08:37:35.042Z,34.8
2022-10-01T08:42:56.934Z,33.8
2022-10-01T08:48:34.911Z,33.2
2022-10-01T08:54:17.705Z,32.8
2022-10-01T08:59:44.789Z,32.3
2022-10-01T09:05:22.801Z,31.4
2022-10-01T09:10:45.171Z,30.7
2022-10-01T09:16:25.915Z,29.8
2022-10-01T09:22:07.579Z,28.9
2022-10-01T09:32:37.216Z,26.6
2022-10-01T09:38:14.986Z,25.6
2022-10-01T09:43:37.772Z,24.8
2022-10-01T09:49:00.378Z,24.3
2022-10-01T09:54:22.878Z,24.2
2022-10-01T10:00:00.781Z,24.1
2022-10-01T10:05:46.357Z,24
2022-10-01T10:10:58.990Z,23.9
2022-10-01T10:16:37.941Z,23.9
2022-10-01T10:22:21.860Z,23.9
2022-10-01T10:27:59.516Z,23.9
2022-10-01T10:33:42.264Z,24.1
2022-10-01T10:39:20.237Z,24.1
2022-10-01T10:45:01.038Z,23.8
2022-10-01T10:50:29.289Z,23.3
2022-10-01T10:55:40.531Z,22.8
2022-10-01T11:01:07.037Z,22.4
2022-10-01T11:06:30.174Z,22.1
2022-10-01T11:11:38.133Z,22.1
2022-10-01T11:17:16.908Z,22.3
2022-10-01T11:22:56.085Z,22.6
2022-10-01T11:28:38.581Z,22.9
2022-10-01T11:34:00.785Z,22.9
2022-10-01T11:39:38.134Z,22.8
2022-10-01T11:45:18.175Z,22.4
2022-10-01T11:50:57.105Z,22.4
2022-10-01T11:56:39.135Z,22.5
2022-10-01T12:02:00.948Z,22.9
2022-10-01T12:07:46.271Z,23.4
2022-10-01T12:13:23.027Z,24.3
2022-10-01T12:19:05.428Z,25.3
2022-10-01T12:24:44.080Z,26
2022-10-01T12:29:55.492Z,26.7
2022-10-01T12:35:33.949Z,28
2022-10-01T12:40:56.250Z,28.4
2022-10-01T12:46:17.977Z,28.1
2022-10-01T12:51:40.517Z,27.6
2022-10-01T12:57:22.590Z,26.6
2022-10-01T13:02:44.766Z,25.2
2022-10-01T13:08:23.140Z,24.1
2022-10-01T13:14:04.308Z,24.2
2022-10-01T13:19:11.532Z,24.9
2022-10-01T13:24:49.523Z,25.6
2022-10-01T13:30:27.749Z,26.4
2022-10-01T13:36:09.556Z,27
2022-10-01T13:41:48.607Z,27.1
2022-10-01T13:47:11.692Z,27
2022-10-01T13:52:49.544Z,28.1
2022-10-01T13:58:26.876Z,29.2
2022-10-01T14:03:53.515Z,30.1
2022-10-01T14:09:14.746Z,31.3
2022-10-01T14:14:37.137Z,31.9
2022-10-01T14:20:00.447Z,33.1
2022-10-01T14:25:22.510Z,33.4
2022-10-01T14:30:45.119Z,33.4
2022-10-01T14:36:07.943Z,32.6
2022-10-01T14:41:49.285Z,32.2
2022-10-01T14:47:27.083Z,31.7
2022-10-01T14:53:08.586Z,31.3
2022-10-01T14:58:47.232Z,30.4
2022-10-01T15:04:09.229Z,29.8
2022-10-01T15:09:36.623Z,29.4
2022-10-01T15:14:58.268Z,28.9
2022-10-01T15:20:36.724Z,28.4
2022-10-01T15:31:24.519Z,27.2
2022-10-01T15:36:47.572Z,26.6
2022-10-01T15:42:48.361Z,25.9
2022-10-01T15:48:26.060Z,25.4
2022-10-01T15:53:32.962Z,24.9
2022-10-01T15:59:11.135Z,24.3
2022-10-01T16:04:49.026Z,23.8
2022-10-01T16:10:26.192Z,23.3
2022-10-01T16:16:04.552Z,22.6
2022-10-01T16:21:27.873Z,22.1
2022-10-01T16:26:50.695Z,21.5
2022-10-01T16:37:50.949Z,20.8
2022-10-01T16:43:50.619Z,20.4
2022-10-01T16:49:13.543Z,20.1
2022-10-01T16:54:35.297Z,19.7
2022-10-01T16:59:41.978Z,19.4
2022-10-01T17:05:07.821Z,19.1
2022-10-01T17:10:45.416Z,18.9
2022-10-01T17:16:24.685Z,18.8
2022-10-01T17:22:02.909Z,18.6
2022-10-01T17:27:40.728Z,18.4
2022-10-01T17:33:19.793Z,18.3
2022-10-01T17:38:57.493Z,18.1
2022-10-01T17:44:38.633Z,18
2022-10-01T17:50:23.320Z,17.9
2022-10-01T17:55:53.314Z,17.8
2022-10-01T18:01:35.973Z,17.7
2022-10-01T18:07:34.230Z,17.6
2022-10-01T18:13:13.304Z,17.4
2022-10-01T18:19:55.803Z,17.3
2022-10-01T18:25:22.390Z,17.2
2022-10-01T18:30:44.771Z,17.1
2022-10-01T18:36:22.215Z,16.9
2022-10-01T18:42:00.586Z,16.9
2022-10-01T18:47:42.762Z,16.8
2022-10-01T18:52:48.558Z,16.8
2022-10-01T18:58:15.245Z,16.8
2022-10-01T19:03:56.265Z,16.7
2022-10-01T19:09:34.174Z,16.6
2022-10-01T19:15:16.718Z,16.6
2022-10-01T19:20:42.660Z,16.5
2022-10-01T19:26:22.643Z,16.5
2022-10-01T19:32:00.895Z,16.5
2022-10-01T19:37:12.352Z,16.5
2022-10-01T19:42:33.918Z,16.5
2022-10-01T19:47:56.209Z,16.4
2022-10-01T19:53:34.297Z,16.3
2022-10-01T19:58:56.181Z,16.3
2022-10-01T20:04:22.428Z,16.3
2022-10-01T20:09:44.939Z,16.2
2022-10-01T20:15:26.615Z,16.1
2022-10-01T20:21:05.170Z,16.1
2022-10-01T20:26:42.201Z,16
2022-10-01T20:32:04.632Z,15.9
2022-10-01T20:37:46.824Z,15.8
2022-10-01T20:43:12.173Z,15.8
2022-10-01T20:48:35.227Z,15.8
2022-10-01T20:53:57.499Z,15.8
2022-10-01T20:59:04.441Z,15.9
2022-10-01T21:04:42.958Z,15.9
2022-10-01T21:10:05.377Z,15.8
2022-10-01T21:15:27.265Z,15.8
2022-10-01T21:21:09.511Z,15.7
2022-10-01T21:26:31.093Z,15.6
2022-10-01T21:32:08.268Z,15.6
2022-10-01T21:37:34.455Z,15.6
2022-10-01T21:43:16.922Z,15.6
2022-10-01T21:48:43.348Z,15.6
2022-10-01T21:54:24.414Z,15.6
2022-10-01T22:00:02.033Z,15.6
2022-10-01T22:05:40.469Z,15.6
2022-10-01T22:11:17.560Z,15.6
2022-10-01T22:16:55.734Z,15.6
2022-10-01T22:22:17.974Z,15.6
2022-10-01T22:27:39.535Z,15.6
2022-10-01T22:33:01.743Z,15.5
2022-10-01T22:43:45.036Z,15.4
2022-10-01T22:49:23.125Z,15.4
2022-10-01T22:55:00.928Z,15.3
2022-10-01T23:00:38.582Z,15.3
2022-10-01T23:06:00.941Z,15.3
2022-10-01T23:11:38.953Z,15.2
2022-10-01T23:17:16.145Z,15.1
2022-10-01T23:22:53.638Z,15.1
2022-10-01T23:28:00.472Z,15.1
2022-10-01T23:33:07.270Z,15
2022-10-01T23:38:44.580Z,15
2022-10-01T23:44:06.756Z,14.9
2022-10-01T23:49:28.469Z,14.9
2022-10-01T23:55:05.559Z,14.9
